sensor_id;sensor_type;location;lat;lon;timestamp;pressure;altitude;pressure_sealevel;temperature;humidity
65384;BME280;51986;52.788;41.368;2023-08-31T00:00:43;99236.00;;;18.69;47.15
65384;BME280;51986;52.788;41.368;2023-08-31T00:03:11;99225.59;;;18.62;47.34
65384;BME280;51986;52.788;41.368;2023-08-31T00:05:43;99243.41;;;18.56;48.00
65384;BME280;51986;52.788;41.368;2023-08-31T00:08:10;99245.94;;;18.59;47.84
65384;BME280;51986;52.788;41.368;2023-08-31T00:10:37;99214.66;;;18.41;47.16
65384;BME280;51986;52.788;41.368;2023-08-31T00:13:05;99231.41;;;18.42;48.11
65384;BME280;51986;52.788;41.368;2023-08-31T00:15:32;99228.44;;;18.40;48.51
65384;BME280;51986;52.788;41.368;2023-08-31T00:17:59;99241.81;;;18.31;47.87
65384;BME280;51986;52.788;41.368;2023-08-31T00:20:27;99234.66;;;18.28;48.30
65384;BME280;51986;52.788;41.368;2023-08-31T00:22:53;99250.56;;;18.31;48.29
65384;BME280;51986;52.788;41.368;2023-08-31T00:25:20;99242.25;;;18.20;48.63
65384;BME280;51986;52.788;41.368;2023-08-31T00:27:47;99284.66;;;18.27;48.82
65384;BME280;51986;52.788;41.368;2023-08-31T00:30:15;99251.28;;;18.22;48.89
65384;BME280;51986;52.788;41.368;2023-08-31T00:32:42;99240.00;;;18.18;49.33
65384;BME280;51986;52.788;41.368;2023-08-31T00:35:09;99232.84;;;17.97;49.80
65384;BME280;51986;52.788;41.368;2023-08-31T00:37:36;99235.97;;;17.95;49.64
65384;BME280;51986;52.788;41.368;2023-08-31T00:40:04;99251.22;;;17.95;49.67
65384;BME280;51986;52.788;41.368;2023-08-31T00:42:31;99241.13;;;17.90;49.96
65384;BME280;51986;52.788;41.368;2023-08-31T00:44:58;99237.88;;;17.86;49.87
65384;BME280;51986;52.788;41.368;2023-08-31T00:47:25;99257.16;;;17.99;49.98
65384;BME280;51986;52.788;41.368;2023-08-31T00:49:52;99234.31;;;17.89;50.45
65384;BME280;51986;52.788;41.368;2023-08-31T00:52:19;99235.22;;;17.86;49.53
65384;BME280;51986;52.788;41.368;2023-08-31T00:54:49;99237.13;;;17.85;49.69
65384;BME280;51986;52.788;41.368;2023-08-31T00:57:18;99238.16;;;17.79;49.77
65384;BME280;51986;52.788;41.368;2023-08-31T00:59:45;99235.03;;;17.80;50.22
65384;BME280;51986;52.788;41.368;2023-08-31T01:02:22;99251.19;;;17.77;49.69
65384;BME280;51986;52.788;41.368;2023-08-31T01:05:22;99247.50;;;17.83;49.59
65384;BME280;51986;52.788;41.368;2023-08-31T01:11:05;99237.53;;;17.65;49.90
65384;BME280;51986;52.788;41.368;2023-08-31T01:13:36;99232.63;;;17.64;50.46
65384;BME280;51986;52.788;41.368;2023-08-31T01:16:07;99227.72;;;17.53;49.54
65384;BME280;51986;52.788;41.368;2023-08-31T01:18:37;99232.13;;;17.47;50.75
65384;BME280;51986;52.788;41.368;2023-08-31T01:24:05;99262.22;;;17.57;49.86
65384;BME280;51986;52.788;41.368;2023-08-31T01:26:32;99250.50;;;17.45;50.24
65384;BME280;51986;52.788;41.368;2023-08-31T01:28:59;99248.66;;;17.33;51.30
65384;BME280;51986;52.788;41.368;2023-08-31T01:31:28;99246.19;;;17.38;50.67
65384;BME280;51986;52.788;41.368;2023-08-31T01:33:55;99257.88;;;17.41;50.65
65384;BME280;51986;52.788;41.368;2023-08-31T01:36:28;99245.53;;;17.25;50.67
65384;BME280;51986;52.788;41.368;2023-08-31T01:39:13;99255.06;;;17.13;50.79
65384;BME280;51986;52.788;41.368;2023-08-31T01:41:47;99266.00;;;17.06;51.26
65384;BME280;51986;52.788;41.368;2023-08-31T01:44:16;99237.44;;;16.85;51.97
65384;BME280;51986;52.788;41.368;2023-08-31T01:46:52;99251.59;;;16.94;51.60
65384;BME280;51986;52.788;41.368;2023-08-31T01:49:22;99258.34;;;16.86;52.53
65384;BME280;51986;52.788;41.368;2023-08-31T01:51:50;99250.34;;;16.86;51.57
65384;BME280;51986;52.788;41.368;2023-08-31T01:54:17;99264.03;;;16.76;52.91
65384;BME280;51986;52.788;41.368;2023-08-31T01:56:44;99271.25;;;16.75;52.15
65384;BME280;51986;52.788;41.368;2023-08-31T01:59:11;99277.28;;;16.66;53.14
65384;BME280;51986;52.788;41.368;2023-08-31T02:01:38;99279.44;;;16.59;53.30
65384;BME280;51986;52.788;41.368;2023-08-31T02:04:05;99268.34;;;16.60;53.40
65384;BME280;51986;52.788;41.368;2023-08-31T02:06:32;99286.56;;;16.62;53.43
65384;BME280;51986;52.788;41.368;2023-08-31T02:08:59;99260.06;;;16.58;53.75
65384;BME280;51986;52.788;41.368;2023-08-31T02:11:26;99261.09;;;16.61;53.72
65384;BME280;51986;52.788;41.368;2023-08-31T02:13:54;99270.47;;;16.65;53.87
65384;BME280;51986;52.788;41.368;2023-08-31T02:16:21;99256.84;;;16.63;53.89
65384;BME280;51986;52.788;41.368;2023-08-31T02:18:49;99268.84;;;16.68;53.94
65384;BME280;51986;52.788;41.368;2023-08-31T02:21:15;99280.44;;;16.52;54.44
65384;BME280;51986;52.788;41.368;2023-08-31T02:23:43;99275.97;;;16.49;54.88
65384;BME280;51986;52.788;41.368;2023-08-31T02:26:11;99272.78;;;16.41;55.92
65384;BME280;51986;52.788;41.368;2023-08-31T02:28:38;99279.72;;;16.39;55.39
65384;BME280;51986;52.788;41.368;2023-08-31T02:31:05;99283.97;;;16.36;55.94
65384;BME280;51986;52.788;41.368;2023-08-31T02:33:32;99280.59;;;16.36;55.94
65384;BME280;51986;52.788;41.368;2023-08-31T02:35:59;99291.75;;;16.43;56.13
65384;BME280;51986;52.788;41.368;2023-08-31T02:38:26;99286.91;;;16.51;55.93
65384;BME280;51986;52.788;41.368;2023-08-31T02:40:53;99294.50;;;16.53;56.31
65384;BME280;51986;52.788;41.368;2023-08-31T02:43:20;99299.69;;;16.56;55.63
65384;BME280;51986;52.788;41.368;2023-08-31T02:45:48;99291.63;;;16.47;55.26
65384;BME280;51986;52.788;41.368;2023-08-31T02:48:18;99295.88;;;16.57;54.92
65384;BME280;51986;52.788;41.368;2023-08-31T02:50:45;99288.91;;;16.60;55.48
65384;BME280;51986;52.788;41.368;2023-08-31T02:53:12;99264.09;;;16.63;55.23
65384;BME280;51986;52.788;41.368;2023-08-31T02:55:42;99265.31;;;16.93;54.86
65384;BME280;51986;52.788;41.368;2023-08-31T02:58:09;99297.22;;;17.28;53.33
65384;BME280;51986;52.788;41.368;2023-08-31T03:00:36;99269.75;;;17.40;53.74
65384;BME280;51986;52.788;41.368;2023-08-31T03:03:03;99272.72;;;17.91;52.39
65384;BME280;51986;52.788;41.368;2023-08-31T03:05:30;99269.25;;;18.40;51.10
65384;BME280;51986;52.788;41.368;2023-08-31T03:07:57;99255.72;;;18.71;49.41
65384;BME280;51986;52.788;41.368;2023-08-31T03:10:25;99260.84;;;19.21;48.52
65384;BME280;51986;52.788;41.368;2023-08-31T03:12:52;99267.69;;;19.55;47.65
65384;BME280;51986;52.788;41.368;2023-08-31T03:15:19;99258.72;;;19.91;46.81
65384;BME280;51986;52.788;41.368;2023-08-31T03:17:46;99293.06;;;20.41;45.72
65384;BME280;51986;52.788;41.368;2023-08-31T03:20:13;99283.69;;;20.60;44.88
65384;BME280;51986;52.788;41.368;2023-08-31T03:22:40;99270.16;;;20.93;43.95
65384;BME280;51986;52.788;41.368;2023-08-31T03:25:08;99274.75;;;21.22;43.43
65384;BME280;51986;52.788;41.368;2023-08-31T03:27:35;99269.16;;;21.56;42.99
65384;BME280;51986;52.788;41.368;2023-08-31T03:30:02;99296.94;;;22.08;42.13
65384;BME280;51986;52.788;41.368;2023-08-31T03:32:29;99273.16;;;22.21;41.54
65384;BME280;51986;52.788;41.368;2023-08-31T03:34:57;99274.13;;;22.65;40.63
65384;BME280;51986;52.788;41.368;2023-08-31T03:37:24;99260.28;;;22.77;40.00
65384;BME280;51986;52.788;41.368;2023-08-31T03:39:51;99291.06;;;22.97;39.86
65384;BME280;51986;52.788;41.368;2023-08-31T03:42:18;99263.03;;;23.09;39.77
65384;BME280;51986;52.788;41.368;2023-08-31T03:44:45;99266.00;;;23.54;38.73
65384;BME280;51986;52.788;41.368;2023-08-31T03:47:15;99269.63;;;23.82;38.24
65384;BME280;51986;52.788;41.368;2023-08-31T03:49:43;99280.78;;;24.18;37.59
65384;BME280;51986;52.788;41.368;2023-08-31T03:52:10;99278.09;;;24.24;37.48
65384;BME280;51986;52.788;41.368;2023-08-31T03:54:37;99293.09;;;24.30;37.51
65384;BME280;51986;52.788;41.368;2023-08-31T03:57:04;99254.91;;;24.49;36.91
65384;BME280;51986;52.788;41.368;2023-08-31T03:59:31;99289.50;;;24.73;36.26
65384;BME280;51986;52.788;41.368;2023-08-31T04:01:58;99268.91;;;24.64;36.97
65384;BME280;51986;52.788;41.368;2023-08-31T04:04:27;99279.97;;;24.94;35.85
65384;BME280;51986;52.788;41.368;2023-08-31T04:06:53;99281.72;;;25.14;35.59
65384;BME280;51986;52.788;41.368;2023-08-31T04:09:20;99306.97;;;25.33;34.96
65384;BME280;51986;52.788;41.368;2023-08-31T04:11:47;99259.28;;;25.47;34.29
65384;BME280;51986;52.788;41.368;2023-08-31T04:14:14;99264.22;;;25.49;34.80
65384;BME280;51986;52.788;41.368;2023-08-31T04:16:41;99292.72;;;25.44;34.64
65384;BME280;51986;52.788;41.368;2023-08-31T04:19:08;99273.28;;;25.51;34.87
65384;BME280;51986;52.788;41.368;2023-08-31T04:21:35;99288.78;;;25.62;34.56
65384;BME280;51986;52.788;41.368;2023-08-31T04:24:02;99274.25;;;25.65;34.77
65384;BME280;51986;52.788;41.368;2023-08-31T04:26:29;99279.19;;;25.44;35.28
65384;BME280;51986;52.788;41.368;2023-08-31T04:28:56;99296.59;;;25.54;34.67
65384;BME280;51986;52.788;41.368;2023-08-31T04:31:23;99277.94;;;25.51;34.19
65384;BME280;51986;52.788;41.368;2023-08-31T04:33:50;99299.59;;;25.40;34.74
65384;BME280;51986;52.788;41.368;2023-08-31T04:36:17;99297.63;;;25.40;34.31
65384;BME280;51986;52.788;41.368;2023-08-31T04:38:44;99259.38;;;25.19;34.43
65384;BME280;51986;52.788;41.368;2023-08-31T04:41:11;99300.06;;;25.44;33.67
65384;BME280;51986;52.788;41.368;2023-08-31T04:43:38;99287.81;;;25.20;33.20
65384;BME280;51986;52.788;41.368;2023-08-31T04:46:05;99304.25;;;25.28;33.26
65384;BME280;51986;52.788;41.368;2023-08-31T04:48:32;99286.09;;;25.23;33.08
65384;BME280;51986;52.788;41.368;2023-08-31T04:50:59;99308.66;;;25.42;32.57
65384;BME280;51986;52.788;41.368;2023-08-31T04:53:26;99308.91;;;25.44;32.51
65384;BME280;51986;52.788;41.368;2023-08-31T04:55:53;99305.16;;;25.75;32.71
65384;BME280;51986;52.788;41.368;2023-08-31T04:58:20;99302.66;;;25.94;32.53
65384;BME280;51986;52.788;41.368;2023-08-31T05:00:47;99322.81;;;25.93;32.09
65384;BME280;51986;52.788;41.368;2023-08-31T05:03:14;99319.19;;;25.68;31.59
65384;BME280;51986;52.788;41.368;2023-08-31T05:05:42;99304.72;;;25.60;32.40
65384;BME280;51986;52.788;41.368;2023-08-31T05:08:09;99309.63;;;25.67;32.47
65384;BME280;51986;52.788;41.368;2023-08-31T05:10:36;99298.25;;;25.85;32.47
65384;BME280;51986;52.788;41.368;2023-08-31T05:13:03;99305.84;;;25.98;31.83
65384;BME280;51986;52.788;41.368;2023-08-31T05:15:31;99231.03;;;25.65;31.95
65384;BME280;51986;52.788;41.368;2023-08-31T05:17:58;99320.47;;;26.31;31.51
65384;BME280;51986;52.788;41.368;2023-08-31T05:20:25;99306.78;;;26.12;31.36
65384;BME280;51986;52.788;41.368;2023-08-31T05:22:52;99334.78;;;26.09;31.89
65384;BME280;51986;52.788;41.368;2023-08-31T05:25:19;99337.84;;;25.77;32.79
65384;BME280;51986;52.788;41.368;2023-08-31T05:27:46;99328.31;;;25.59;33.45
65384;BME280;51986;52.788;41.368;2023-08-31T05:30:13;99309.63;;;25.67;33.92
65384;BME280;51986;52.788;41.368;2023-08-31T05:32:39;99328.78;;;25.41;34.02
65384;BME280;51986;52.788;41.368;2023-08-31T05:35:07;99321.19;;;25.40;36.21
65384;BME280;51986;52.788;41.368;2023-08-31T05:37:34;99339.81;;;25.38;36.07
65384;BME280;51986;52.788;41.368;2023-08-31T05:40:03;99342.78;;;25.40;36.51
65384;BME280;51986;52.788;41.368;2023-08-31T05:42:30;99355.56;;;25.39;36.21
65384;BME280;51986;52.788;41.368;2023-08-31T05:44:57;99360.94;;;25.28;36.78
65384;BME280;51986;52.788;41.368;2023-08-31T05:47:24;99331.00;;;25.31;36.19
65384;BME280;51986;52.788;41.368;2023-08-31T05:49:51;99339.84;;;25.49;35.97
65384;BME280;51986;52.788;41.368;2023-08-31T05:52:18;99344.72;;;25.50;36.47
65384;BME280;51986;52.788;41.368;2023-08-31T05:54:45;99306.41;;;25.52;36.40
65384;BME280;51986;52.788;41.368;2023-08-31T05:57:12;99355.03;;;25.74;36.61
65384;BME280;51986;52.788;41.368;2023-08-31T05:59:39;99325.06;;;25.83;35.75
65384;BME280;51986;52.788;41.368;2023-08-31T06:02:06;99359.19;;;25.92;35.50
65384;BME280;51986;52.788;41.368;2023-08-31T06:04:33;99343.16;;;26.11;34.90
65384;BME280;51986;52.788;41.368;2023-08-31T06:07:01;99336.28;;;26.04;34.81
65384;BME280;51986;52.788;41.368;2023-08-31T06:09:28;99344.09;;;26.25;34.94
65384;BME280;51986;52.788;41.368;2023-08-31T06:11:55;99388.72;;;26.54;34.60
65384;BME280;51986;52.788;41.368;2023-08-31T06:14:22;99341.16;;;26.70;33.83
65384;BME280;51986;52.788;41.368;2023-08-31T06:16:49;99342.66;;;26.65;34.21
65384;BME280;51986;52.788;41.368;2023-08-31T06:19:16;99344.06;;;26.77;33.63
65384;BME280;51986;52.788;41.368;2023-08-31T06:21:43;99349.25;;;26.75;33.37
65384;BME280;51986;52.788;41.368;2023-08-31T06:24:10;99354.91;;;27.13;32.68
65384;BME280;51986;52.788;41.368;2023-08-31T06:26:37;99338.75;;;27.02;33.07
65384;BME280;51986;52.788;41.368;2023-08-31T06:29:04;99336.34;;;26.51;33.86
65384;BME280;51986;52.788;41.368;2023-08-31T06:31:31;99334.72;;;26.31;33.58
65384;BME280;51986;52.788;41.368;2023-08-31T06:33:58;99354.53;;;26.51;34.03
65384;BME280;51986;52.788;41.368;2023-08-31T06:36:25;99354.13;;;26.82;34.19
65384;BME280;51986;52.788;41.368;2023-08-31T06:38:52;99381.03;;;27.10;33.06
65384;BME280;51986;52.788;41.368;2023-08-31T06:41:19;99358.44;;;27.02;33.11
65384;BME280;51986;52.788;41.368;2023-08-31T06:43:46;99355.16;;;27.15;33.09
65384;BME280;51986;52.788;41.368;2023-08-31T06:46:13;99374.19;;;27.34;32.56
65384;BME280;51986;52.788;41.368;2023-08-31T06:48:50;99364.81;;;27.05;33.00
65384;BME280;51986;52.788;41.368;2023-08-31T06:51:17;99337.31;;;27.01;32.81
65384;BME280;51986;52.788;41.368;2023-08-31T06:53:44;99349.28;;;27.05;32.45
65384;BME280;51986;52.788;41.368;2023-08-31T06:56:11;99379.47;;;26.85;32.57
65384;BME280;51986;52.788;41.368;2023-08-31T06:58:38;99365.63;;;26.53;32.37
65384;BME280;51986;52.788;41.368;2023-08-31T07:01:06;99361.25;;;26.39;32.55
65384;BME280;51986;52.788;41.368;2023-08-31T07:03:33;99398.06;;;26.53;32.06
65384;BME280;51986;52.788;41.368;2023-08-31T07:06:00;99381.53;;;26.68;32.65
65384;BME280;51986;52.788;41.368;2023-08-31T07:08:27;99387.53;;;26.91;31.77
65384;BME280;51986;52.788;41.368;2023-08-31T07:10:54;99369.78;;;27.01;31.32
65384;BME280;51986;52.788;41.368;2023-08-31T07:13:21;99377.25;;;27.19;30.88
65384;BME280;51986;52.788;41.368;2023-08-31T07:15:48;99362.09;;;27.10;30.93
65384;BME280;51986;52.788;41.368;2023-08-31T07:18:15;99367.81;;;27.01;31.42
65384;BME280;51986;52.788;41.368;2023-08-31T07:20:42;99371.94;;;27.08;30.80
65384;BME280;51986;52.788;41.368;2023-08-31T07:23:12;99370.31;;;26.94;30.93
65384;BME280;51986;52.788;41.368;2023-08-31T07:25:39;99357.63;;;27.13;30.62
65384;BME280;51986;52.788;41.368;2023-08-31T07:28:06;99357.50;;;27.30;30.99
65384;BME280;51986;52.788;41.368;2023-08-31T07:30:33;99392.88;;;27.37;30.55
65384;BME280;51986;52.788;41.368;2023-08-31T07:33:00;99346.25;;;27.20;30.21
65384;BME280;51986;52.788;41.368;2023-08-31T07:35:29;99350.78;;;27.36;30.50
65384;BME280;51986;52.788;41.368;2023-08-31T07:37:56;99341.13;;;27.41;29.74
65384;BME280;51986;52.788;41.368;2023-08-31T07:40:23;99375.16;;;27.36;29.99
65384;BME280;51986;52.788;41.368;2023-08-31T07:42:50;99391.19;;;27.34;29.96
65384;BME280;51986;52.788;41.368;2023-08-31T07:45:17;99356.13;;;27.48;30.31
65384;BME280;51986;52.788;41.368;2023-08-31T07:47:44;99365.03;;;27.67;29.98
65384;BME280;51986;52.788;41.368;2023-08-31T07:50:11;99349.41;;;27.79;29.67
65384;BME280;51986;52.788;41.368;2023-08-31T07:52:38;99372.09;;;28.00;29.27
65384;BME280;51986;52.788;41.368;2023-08-31T07:55:05;99345.19;;;27.83;29.99
65384;BME280;51986;52.788;41.368;2023-08-31T07:57:32;99343.66;;;27.88;29.33
65384;BME280;51986;52.788;41.368;2023-08-31T07:59:59;99375.31;;;27.99;29.55
65384;BME280;51986;52.788;41.368;2023-08-31T08:02:38;99378.94;;;27.82;29.66
65384;BME280;51986;52.788;41.368;2023-08-31T08:05:05;99370.91;;;27.96;29.07
65384;BME280;51986;52.788;41.368;2023-08-31T08:07:32;99366.28;;;28.15;28.89
65384;BME280;51986;52.788;41.368;2023-08-31T08:09:59;99347.75;;;28.19;28.46
65384;BME280;51986;52.788;41.368;2023-08-31T08:12:26;99323.75;;;28.04;28.02
65384;BME280;51986;52.788;41.368;2023-08-31T08:14:53;99346.38;;;28.31;27.64
65384;BME280;51986;52.788;41.368;2023-08-31T08:17:20;99354.41;;;28.18;28.11
65384;BME280;51986;52.788;41.368;2023-08-31T08:19:47;99347.81;;;28.32;27.41
65384;BME280;51986;52.788;41.368;2023-08-31T08:22:14;99342.97;;;28.44;28.25
65384;BME280;51986;52.788;41.368;2023-08-31T08:24:41;99350.72;;;28.15;28.27
65384;BME280;51986;52.788;41.368;2023-08-31T08:27:09;99352.94;;;28.17;28.23
65384;BME280;51986;52.788;41.368;2023-08-31T08:29:36;99344.00;;;28.22;28.50
65384;BME280;51986;52.788;41.368;2023-08-31T08:32:03;99343.84;;;28.52;27.81
65384;BME280;51986;52.788;41.368;2023-08-31T08:34:30;99346.50;;;28.39;27.91
65384;BME280;51986;52.788;41.368;2023-08-31T08:36:57;99336.09;;;28.43;27.90
65384;BME280;51986;52.788;41.368;2023-08-31T08:39:24;99337.56;;;28.25;27.78
65384;BME280;51986;52.788;41.368;2023-08-31T08:41:54;99337.88;;;28.40;28.56
65384;BME280;51986;52.788;41.368;2023-08-31T08:44:22;99341.75;;;28.64;28.40
65384;BME280;51986;52.788;41.368;2023-08-31T08:46:52;99343.13;;;28.71;27.51
65384;BME280;51986;52.788;41.368;2023-08-31T08:49:19;99310.44;;;28.63;28.05
65384;BME280;51986;52.788;41.368;2023-08-31T08:51:49;99350.81;;;28.85;27.20
65384;BME280;51986;52.788;41.368;2023-08-31T08:54:18;99346.81;;;28.73;27.97
65384;BME280;51986;52.788;41.368;2023-08-31T08:56:45;99352.00;;;28.71;27.74
65384;BME280;51986;52.788;41.368;2023-08-31T08:59:12;99352.31;;;28.68;27.13
65384;BME280;51986;52.788;41.368;2023-08-31T09:01:40;99340.00;;;28.99;27.19
65384;BME280;51986;52.788;41.368;2023-08-31T09:04:09;99345.63;;;29.01;26.86
65384;BME280;51986;52.788;41.368;2023-08-31T09:06:36;99367.56;;;29.22;26.47
65384;BME280;51986;52.788;41.368;2023-08-31T09:09:03;99320.31;;;28.79;26.95
65384;BME280;51986;52.788;41.368;2023-08-31T09:11:30;99316.03;;;28.84;26.75
65384;BME280;51986;52.788;41.368;2023-08-31T09:13:58;99332.78;;;28.88;26.79
65384;BME280;51986;52.788;41.368;2023-08-31T09:16:29;99323.63;;;29.04;27.16
65384;BME280;51986;52.788;41.368;2023-08-31T09:18:57;99347.53;;;29.06;26.57
65384;BME280;51986;52.788;41.368;2023-08-31T09:21:37;99316.63;;;28.58;27.77
65384;BME280;51986;52.788;41.368;2023-08-31T09:24:05;99322.50;;;28.62;27.20
65384;BME280;51986;52.788;41.368;2023-08-31T09:26:37;99329.56;;;28.71;27.17
65384;BME280;51986;52.788;41.368;2023-08-31T09:29:08;99340.50;;;28.65;27.34
65384;BME280;51986;52.788;41.368;2023-08-31T09:31:35;99331.09;;;28.85;27.35
65384;BME280;51986;52.788;41.368;2023-08-31T09:34:03;99348.53;;;28.14;28.11
65384;BME280;51986;52.788;41.368;2023-08-31T09:36:31;99337.81;;;28.03;28.40
65384;BME280;51986;52.788;41.368;2023-08-31T09:38:58;99342.28;;;27.76;28.46
65384;BME280;51986;52.788;41.368;2023-08-31T09:41:25;99348.22;;;27.99;28.48
65384;BME280;51986;52.788;41.368;2023-08-31T09:43:52;99343.22;;;28.03;27.99
65384;BME280;51986;52.788;41.368;2023-08-31T09:46:19;99346.69;;;27.79;28.52
65384;BME280;51986;52.788;41.368;2023-08-31T09:48:48;99364.72;;;27.76;28.85
65384;BME280;51986;52.788;41.368;2023-08-31T09:51:16;99340.63;;;27.92;28.08
65384;BME280;51986;52.788;41.368;2023-08-31T09:53:47;99348.03;;;28.34;27.23
65384;BME280;51986;52.788;41.368;2023-08-31T09:56:20;99356.84;;;28.22;27.62
65384;BME280;51986;52.788;41.368;2023-08-31T09:58:48;99368.88;;;28.45;27.25
65384;BME280;51986;52.788;41.368;2023-08-31T10:01:17;99352.72;;;28.53;27.41
65384;BME280;51986;52.788;41.368;2023-08-31T10:03:56;99358.53;;;28.44;27.62
65384;BME280;51986;52.788;41.368;2023-08-31T10:06:23;99360.44;;;28.68;27.34
65384;BME280;51986;52.788;41.368;2023-08-31T10:08:51;99352.88;;;28.42;27.05
65384;BME280;51986;52.788;41.368;2023-08-31T10:11:19;99349.91;;;28.64;27.06
65384;BME280;51986;52.788;41.368;2023-08-31T10:13:47;99345.28;;;28.91;26.34
65384;BME280;51986;52.788;41.368;2023-08-31T10:16:16;99365.94;;;29.13;26.27
65384;BME280;51986;52.788;41.368;2023-08-31T10:18:44;99405.41;;;29.33;25.84
65384;BME280;51986;52.788;41.368;2023-08-31T10:21:16;99349.91;;;28.96;26.78
65384;BME280;51986;52.788;41.368;2023-08-31T10:23:47;99371.69;;;29.09;26.64
65384;BME280;51986;52.788;41.368;2023-08-31T10:26:28;99336.22;;;28.88;27.15
65384;BME280;51986;52.788;41.368;2023-08-31T10:28:58;99345.47;;;28.61;26.41
65384;BME280;51986;52.788;41.368;2023-08-31T10:31:32;99329.84;;;28.29;27.29
65384;BME280;51986;52.788;41.368;2023-08-31T10:34:03;99352.97;;;28.55;26.79
65384;BME280;51986;52.788;41.368;2023-08-31T10:36:39;99318.78;;;28.27;27.75
65384;BME280;51986;52.788;41.368;2023-08-31T10:39:17;99335.88;;;28.41;27.98
65384;BME280;51986;52.788;41.368;2023-08-31T10:41:55;99326.91;;;28.08;27.66
65384;BME280;51986;52.788;41.368;2023-08-31T10:44:27;99353.69;;;28.36;26.90
65384;BME280;51986;52.788;41.368;2023-08-31T10:47:00;99328.09;;;28.51;27.02
65384;BME280;51986;52.788;41.368;2023-08-31T10:49:29;99339.09;;;28.58;27.17
65384;BME280;51986;52.788;41.368;2023-08-31T10:51:58;99375.84;;;28.78;27.28
65384;BME280;51986;52.788;41.368;2023-08-31T10:54:32;99340.44;;;28.71;27.27
65384;BME280;51986;52.788;41.368;2023-08-31T10:57:01;99344.72;;;28.98;26.75
65384;BME280;51986;52.788;41.368;2023-08-31T11:00:03;99319.97;;;29.15;26.05
65384;BME280;51986;52.788;41.368;2023-08-31T11:02:44;99348.50;;;29.08;26.14
65384;BME280;51986;52.788;41.368;2023-08-31T11:05:13;99318.06;;;28.64;26.57
65384;BME280;51986;52.788;41.368;2023-08-31T11:07:47;99316.09;;;28.65;26.80
65384;BME280;51986;52.788;41.368;2023-08-31T11:10:25;99323.28;;;28.95;26.62
65384;BME280;51986;52.788;41.368;2023-08-31T11:12:54;99341.66;;;28.88;26.30
65384;BME280;51986;52.788;41.368;2023-08-31T11:15:24;99331.63;;;28.64;26.56
65384;BME280;51986;52.788;41.368;2023-08-31T11:17:54;99325.91;;;28.49;26.56
65384;BME280;51986;52.788;41.368;2023-08-31T11:20:22;99301.78;;;28.64;27.61
65384;BME280;51986;52.788;41.368;2023-08-31T11:22:51;99272.97;;;28.43;27.45
65384;BME280;51986;52.788;41.368;2023-08-31T11:25:18;99302.88;;;28.56;27.86
65384;BME280;51986;52.788;41.368;2023-08-31T11:27:59;99329.50;;;28.38;26.89
65384;BME280;51986;52.788;41.368;2023-08-31T11:30:28;99302.69;;;28.16;27.92
65384;BME280;51986;52.788;41.368;2023-08-31T11:32:55;99306.78;;;28.42;27.90
65384;BME280;51986;52.788;41.368;2023-08-31T11:35:23;99295.63;;;28.45;27.19
65384;BME280;51986;52.788;41.368;2023-08-31T11:37:52;99302.06;;;28.61;27.19
65384;BME280;51986;52.788;41.368;2023-08-31T11:40:19;99315.13;;;28.95;27.04
65384;BME280;51986;52.788;41.368;2023-08-31T11:42:48;99291.84;;;28.99;26.72
65384;BME280;51986;52.788;41.368;2023-08-31T11:45:16;99304.75;;;28.61;26.72
65384;BME280;51986;52.788;41.368;2023-08-31T11:47:43;99305.00;;;28.44;26.28
65384;BME280;51986;52.788;41.368;2023-08-31T11:50:11;99324.22;;;28.46;26.53
65384;BME280;51986;52.788;41.368;2023-08-31T11:52:40;99291.66;;;28.46;26.89
65384;BME280;51986;52.788;41.368;2023-08-31T11:55:11;99304.63;;;28.72;26.43
65384;BME280;51986;52.788;41.368;2023-08-31T11:57:39;99263.13;;;28.39;27.09
65384;BME280;51986;52.788;41.368;2023-08-31T12:00:06;99281.38;;;28.39;26.73
65384;BME280;51986;52.788;41.368;2023-08-31T12:02:37;99279.28;;;28.13;27.10
65384;BME280;51986;52.788;41.368;2023-08-31T12:05:04;99285.00;;;28.28;27.18
65384;BME280;51986;52.788;41.368;2023-08-31T12:07:31;99281.38;;;28.39;27.38
65384;BME280;51986;52.788;41.368;2023-08-31T12:10:05;99271.28;;;28.02;27.69
65384;BME280;51986;52.788;41.368;2023-08-31T12:12:32;99278.56;;;27.69;28.00
65384;BME280;51986;52.788;41.368;2023-08-31T12:15:01;99288.50;;;27.61;27.93
65384;BME280;51986;52.788;41.368;2023-08-31T12:17:29;99284.72;;;27.70;27.81
65384;BME280;51986;52.788;41.368;2023-08-31T12:20:03;99300.13;;;27.99;27.83
65384;BME280;51986;52.788;41.368;2023-08-31T12:22:31;99277.16;;;28.06;27.05
65384;BME280;51986;52.788;41.368;2023-08-31T12:24:58;99269.94;;;27.89;27.25
65384;BME280;51986;52.788;41.368;2023-08-31T12:27:25;99267.59;;;27.99;27.25
65384;BME280;51986;52.788;41.368;2023-08-31T12:29:52;99275.69;;;28.24;26.78
65384;BME280;51986;52.788;41.368;2023-08-31T12:32:19;99263.66;;;28.19;27.75
65384;BME280;51986;52.788;41.368;2023-08-31T12:34:47;99260.47;;;28.21;28.07
65384;BME280;51986;52.788;41.368;2023-08-31T12:37:13;99242.84;;;27.89;28.07
65384;BME280;51986;52.788;41.368;2023-08-31T12:39:40;99247.09;;;28.04;27.77
65384;BME280;51986;52.788;41.368;2023-08-31T12:42:07;99272.25;;;28.23;27.26
65384;BME280;51986;52.788;41.368;2023-08-31T12:44:49;99244.38;;;27.85;27.46
65384;BME280;51986;52.788;41.368;2023-08-31T12:47:16;99254.69;;;28.11;27.33
65384;BME280;51986;52.788;41.368;2023-08-31T12:49:43;99250.59;;;27.99;26.78
65384;BME280;51986;52.788;41.368;2023-08-31T12:52:10;99261.19;;;28.21;27.39
65384;BME280;51986;52.788;41.368;2023-08-31T12:54:37;99254.00;;;28.05;27.08
65384;BME280;51986;52.788;41.368;2023-08-31T12:57:04;99261.38;;;27.85;27.83
65384;BME280;51986;52.788;41.368;2023-08-31T12:59:31;99270.84;;;27.98;27.18
65384;BME280;51986;52.788;41.368;2023-08-31T13:01:58;99272.09;;;28.15;27.68